createdAt,value
2017-08-26T00:01:56.209Z,20.20
2017-08-26T00:04:23.685Z,20.20
2017-08-26T00:06:51.161Z,20.10
2017-08-26T00:09:18.669Z,20.00
2017-08-26T00:11:46.149Z,19.90
2017-08-26T00:14:13.625Z,19.90
2017-08-26T00:16:41.445Z,19.90
2017-08-26T00:19:08.925Z,19.80
2017-08-26T00:21:36.401Z,19.70
2017-08-26T00:24:03.896Z,19.60
2017-08-26T00:26:31.377Z,19.50
2017-08-26T00:28:59.621Z,19.50
2017-08-26T00:31:27.118Z,19.50
2017-08-26T00:33:54.598Z,19.50
2017-08-26T00:36:22.077Z,19.50
2017-08-26T00:38:49.833Z,19.40
2017-08-26T00:41:17.304Z,19.50
2017-08-26T00:43:44.781Z,19.40
2017-08-26T00:46:12.285Z,19.20
2017-08-26T00:48:39.762Z,19.20
2017-08-26T00:51:07.241Z,19.20
2017-08-26T00:53:34.733Z,19.20
2017-08-26T00:56:02.973Z,19.20
2017-08-26T00:58:30.668Z,19.20
2017-08-26T01:00:58.164Z,19.20
2017-08-26T01:03:25.641Z,19.20
2017-08-26T01:05:53.121Z,19.20
2017-08-26T01:08:20.619Z,19.20
2017-08-26T01:10:48.103Z,19.10
2017-08-26T01:13:15.585Z,19.10
2017-08-26T01:15:43.170Z,19.10
2017-08-26T01:18:11.419Z,19.10
2017-08-26T01:20:38.901Z,19.10
2017-08-26T01:23:06.394Z,19.00
2017-08-26T01:25:33.874Z,19.00
2017-08-26T01:28:01.369Z,18.90
2017-08-26T01:30:28.869Z,18.90
2017-08-26T01:32:56.345Z,18.90
2017-08-26T01:35:23.841Z,18.80
2017-08-26T01:37:51.341Z,18.70
2017-08-26T01:40:18.817Z,18.70
2017-08-26T01:42:46.467Z,18.80
2017-08-26T01:45:14.361Z,18.70
2017-08-26T01:47:42.097Z,18.60
2017-08-26T01:50:09.577Z,18.40
2017-08-26T01:52:37.269Z,18.40
2017-08-26T01:55:04.745Z,18.30
2017-08-26T01:57:32.222Z,18.20
2017-08-26T01:59:59.722Z,18.00
2017-08-26T02:02:27.193Z,18.00
2017-08-26T02:04:54.802Z,18.00
2017-08-26T02:07:22.321Z,18.00
2017-08-26T02:09:49.801Z,18.10
2017-08-26T02:12:17.273Z,18.10
2017-08-26T02:14:45.537Z,18.20
2017-08-26T02:17:13.033Z,18.10
2017-08-26T02:19:40.509Z,18.20
2017-08-26T02:22:08.006Z,18.20
2017-08-26T02:24:35.481Z,18.20
2017-08-26T02:27:02.953Z,18.20
2017-08-26T02:29:30.666Z,18.10
2017-08-26T02:31:58.150Z,18.20
2017-08-26T02:34:25.629Z,18.20
2017-08-26T02:36:53.129Z,18.20
2017-08-26T02:39:20.605Z,18.10
2017-08-26T02:41:48.183Z,18.00
2017-08-26T02:44:16.449Z,17.90
2017-08-26T02:46:43.921Z,17.90
2017-08-26T02:49:11.394Z,17.90
2017-08-26T02:51:38.903Z,17.90
2017-08-26T02:54:06.381Z,17.80
2017-08-26T02:56:33.857Z,17.80
2017-08-26T02:59:01.359Z,17.70
2017-08-26T03:01:28.836Z,17.70
2017-08-26T03:03:57.344Z,17.70
2017-08-26T03:06:24.842Z,17.70
2017-08-26T03:08:52.430Z,17.70
2017-08-26T03:11:19.951Z,17.70
2017-08-26T03:13:47.449Z,17.70
2017-08-26T03:16:14.928Z,17.70
2017-08-26T03:18:42.404Z,17.60
2017-08-26T03:21:09.909Z,17.70
2017-08-26T03:23:37.384Z,17.70
2017-08-26T03:26:04.858Z,17.60
2017-08-26T03:28:32.578Z,17.60
2017-08-26T03:31:00.854Z,17.50
2017-08-26T03:33:28.338Z,17.50
2017-08-26T03:35:55.841Z,17.60
2017-08-26T03:38:23.339Z,17.60
2017-08-26T03:40:51.794Z,17.60
2017-08-26T03:43:19.293Z,17.50
2017-08-26T03:45:46.769Z,17.60
2017-08-26T03:48:14.538Z,17.50
2017-08-26T03:50:42.044Z,17.50
2017-08-26T03:53:09.522Z,17.50
2017-08-26T03:55:37.001Z,17.40
2017-08-26T03:58:04.500Z,17.40
2017-08-26T04:00:31.976Z,17.40
2017-08-26T04:02:59.456Z,17.40
2017-08-26T04:05:27.128Z,17.40
2017-08-26T04:07:54.608Z,17.40
2017-08-26T04:10:22.086Z,17.40
2017-08-26T04:12:49.589Z,17.40
2017-08-26T04:15:17.068Z,17.40
2017-08-26T04:17:44.549Z,17.30
2017-08-26T04:20:12.045Z,17.30
2017-08-26T04:22:39.517Z,17.20
2017-08-26T04:25:07.005Z,17.20
2017-08-26T04:27:34.913Z,17.20
2017-08-26T04:30:02.397Z,17.10
2017-08-26T04:32:29.974Z,17.10
2017-08-26T04:34:57.473Z,17.10
2017-08-26T04:37:24.953Z,17.10
2017-08-26T04:39:53.193Z,17.10
2017-08-26T04:42:20.688Z,17.10
2017-08-26T04:44:48.185Z,17.10
2017-08-26T04:47:15.660Z,17.00
2017-08-26T04:49:43.157Z,17.00
2017-08-26T04:52:11.398Z,16.70
2017-08-26T04:54:38.873Z,16.70
2017-08-26T04:57:06.378Z,16.80
2017-08-26T04:59:33.861Z,16.80
2017-08-26T05:02:01.337Z,16.80
2017-08-26T05:04:28.846Z,16.80
2017-08-26T05:06:56.381Z,16.90
2017-08-26T05:09:23.929Z,17.10
2017-08-26T05:11:51.429Z,17.10
2017-08-26T05:14:18.910Z,17.20
2017-08-26T05:16:46.406Z,17.40
2017-08-26T05:19:13.915Z,17.50
2017-08-26T05:21:41.393Z,17.40
2017-08-26T05:24:08.926Z,17.60
2017-08-26T05:26:36.421Z,17.70
2017-08-26T05:29:04.146Z,18.00
2017-08-26T05:31:31.729Z,18.30
2017-08-26T05:33:59.353Z,18.60
2017-08-26T05:36:26.861Z,18.70
2017-08-26T05:38:54.337Z,19.00
2017-08-26T05:41:22.601Z,19.30
2017-08-26T05:43:50.080Z,19.30
2017-08-26T05:46:17.581Z,19.70
2017-08-26T05:48:45.333Z,19.90
2017-08-26T05:51:12.830Z,20.10
2017-08-26T05:53:40.308Z,20.30
2017-08-26T05:56:07.785Z,20.50
2017-08-26T05:58:35.285Z,20.60
2017-08-26T06:01:02.757Z,20.80
2017-08-26T06:03:30.249Z,21.00
2017-08-26T06:05:57.722Z,21.30
2017-08-26T06:08:25.213Z,21.50
2017-08-26T06:10:52.693Z,21.60
2017-08-26T06:13:20.187Z,21.70
2017-08-26T06:15:47.673Z,21.80
2017-08-26T06:18:15.930Z,22.20
2017-08-26T06:20:43.701Z,22.10
2017-08-26T06:23:11.194Z,22.30
2017-08-26T06:25:38.669Z,22.40
2017-08-26T06:28:06.152Z,22.50
2017-08-26T06:30:33.641Z,22.50
2017-08-26T06:33:01.117Z,22.80
2017-08-26T06:35:28.613Z,23.30
2017-08-26T06:37:57.888Z,23.70
2017-08-26T06:40:27.061Z,24.40
2017-08-26T06:42:54.701Z,24.40
2017-08-26T06:45:22.173Z,24.30
2017-08-26T06:47:49.665Z,24.40
2017-08-26T06:50:17.138Z,24.50
2017-08-26T06:52:44.609Z,24.60
2017-08-26T06:55:12.096Z,24.80
2017-08-26T06:57:40.333Z,25.20
2017-08-26T07:00:09.256Z,25.30
2017-08-26T07:02:36.746Z,25.30
2017-08-26T07:05:04.241Z,25.70
2017-08-26T07:07:32.029Z,26.00
2017-08-26T07:09:59.501Z,26.50
2017-08-26T07:12:26.993Z,26.90
2017-08-26T07:14:54.502Z,27.10
2017-08-26T07:17:21.993Z,27.30
2017-08-26T07:19:49.461Z,27.50
2017-08-26T07:22:16.933Z,26.90
2017-08-26T07:24:45.189Z,27.30
2017-08-26T07:27:12.681Z,27.30
2017-08-26T07:29:40.154Z,27.30
2017-08-26T07:32:07.621Z,27.70
2017-08-26T07:34:35.119Z,28.20
2017-08-26T07:37:02.593Z,28.60
2017-08-26T07:39:30.086Z,28.50
2017-08-26T07:41:57.557Z,28.30
2017-08-26T07:44:25.025Z,28.80
2017-08-26T07:46:52.513Z,29.10
2017-08-26T07:49:19.989Z,29.10
2017-08-26T07:51:47.481Z,29.30
2017-08-26T07:54:14.952Z,29.60
2017-08-26T07:56:42.545Z,29.80
2017-08-26T07:59:10.781Z,29.60
2017-08-26T08:01:38.268Z,29.60
2017-08-26T08:04:05.737Z,29.80
2017-08-26T08:06:33.230Z,30.10
2017-08-26T08:09:00.701Z,30.60
2017-08-26T08:11:28.169Z,31.00
2017-08-26T08:13:55.661Z,31.00
2017-08-26T08:16:23.133Z,30.60
2017-08-26T08:18:50.621Z,30.60
2017-08-26T08:21:18.094Z,30.90
2017-08-26T08:23:45.581Z,31.10
2017-08-26T08:26:13.053Z,31.10
2017-08-26T08:28:41.310Z,31.60
2017-08-26T08:31:08.882Z,31.60
2017-08-26T08:33:37.141Z,31.30
2017-08-26T08:36:04.637Z,31.30
2017-08-26T08:38:32.101Z,31.40
2017-08-26T08:40:59.593Z,31.60
2017-08-26T08:43:27.065Z,31.10
2017-08-26T08:45:54.560Z,31.40
2017-08-26T08:48:22.801Z,31.50
2017-08-26T08:50:50.275Z,31.50
2017-08-26T08:53:18.534Z,31.80
2017-08-26T08:55:46.020Z,31.80
2017-08-26T08:58:13.525Z,31.70
2017-08-26T09:00:41.274Z,31.10
2017-08-26T09:03:08.746Z,31.00
2017-08-26T09:05:36.246Z,31.30
2017-08-26T09:08:04.485Z,31.40
2017-08-26T09:10:31.957Z,31.40
2017-08-26T09:12:59.448Z,31.40
2017-08-26T09:15:26.918Z,31.50
2017-08-26T09:17:54.406Z,31.80
2017-08-26T09:20:21.877Z,32.10
2017-08-26T09:22:49.365Z,32.60
2017-08-26T09:25:16.842Z,33.20
2017-08-26T09:27:44.315Z,33.40
2017-08-26T09:30:11.805Z,33.40
2017-08-26T09:32:39.278Z,33.60
2017-08-26T09:35:06.777Z,33.60
2017-08-26T09:37:34.249Z,33.80
2017-08-26T09:40:01.718Z,34.00
2017-08-26T09:42:29.209Z,34.20
2017-08-26T09:44:56.680Z,34.50
2017-08-26T09:47:24.937Z,33.20
2017-08-26T09:49:53.173Z,33.60
2017-08-26T09:52:20.665Z,33.60
2017-08-26T09:54:48.185Z,33.50
2017-08-26T09:57:15.657Z,33.70
2017-08-26T09:59:43.149Z,33.70
2017-08-26T10:02:10.622Z,33.80
2017-08-26T10:04:38.881Z,32.60
2017-08-26T10:07:06.357Z,32.60
2017-08-26T10:09:34.613Z,33.30
2017-08-26T10:12:02.083Z,33.30
2017-08-26T10:14:29.598Z,33.70
2017-08-26T10:16:57.074Z,34.20
2017-08-26T10:19:24.545Z,34.50
2017-08-26T10:21:52.037Z,34.70
2017-08-26T10:24:19.508Z,34.60
2017-08-26T10:26:47.002Z,34.50
2017-08-26T10:29:14.473Z,34.70
2017-08-26T10:31:41.945Z,34.80
2017-08-26T10:34:09.433Z,35.00
2017-08-26T10:36:36.906Z,35.60
2017-08-26T10:39:04.397Z,35.50
2017-08-26T10:41:31.869Z,35.50
2017-08-26T10:44:00.129Z,35.70
2017-08-26T10:46:27.618Z,35.70
2017-08-26T10:48:55.094Z,35.50
2017-08-26T10:51:22.861Z,35.80
2017-08-26T10:53:50.329Z,36.00
2017-08-26T10:56:18.701Z,36.30
2017-08-26T10:58:46.173Z,36.40
2017-08-26T11:01:13.666Z,36.60
2017-08-26T11:03:41.136Z,36.70
2017-08-26T11:06:08.610Z,36.60
2017-08-26T11:08:36.101Z,36.30
2017-08-26T11:11:03.785Z,36.50
2017-08-26T11:13:31.282Z,36.40
2017-08-26T11:15:58.761Z,36.80
2017-08-26T11:18:26.236Z,36.90
2017-08-26T11:20:53.724Z,37.30
2017-08-26T11:23:21.985Z,36.70
2017-08-26T11:25:49.705Z,36.70
2017-08-26T11:28:17.186Z,37.10
2017-08-26T11:30:44.679Z,37.20
2017-08-26T11:33:12.149Z,36.80
2017-08-26T11:35:39.617Z,37.00
2017-08-26T11:38:07.153Z,37.20
2017-08-26T11:40:34.646Z,37.50
2017-08-26T11:43:02.133Z,37.90
2017-08-26T11:45:29.624Z,38.60
2017-08-26T11:47:57.120Z,39.20
2017-08-26T11:50:24.589Z,39.20
2017-08-26T11:52:52.075Z,38.60
2017-08-26T11:55:19.586Z,38.40
2017-08-26T11:57:47.061Z,38.50
2017-08-26T12:00:14.558Z,37.60
2017-08-26T12:02:42.270Z,37.80
2017-08-26T12:05:09.761Z,38.10
2017-08-26T12:07:37.233Z,37.70
2017-08-26T12:10:05.505Z,37.90
2017-08-26T12:12:32.978Z,37.90
2017-08-26T12:15:01.237Z,37.80
2017-08-26T12:17:28.952Z,37.80
2017-08-26T12:19:56.453Z,37.60
2017-08-26T12:22:23.925Z,38.10
2017-08-26T12:24:52.181Z,38.30
2017-08-26T12:27:19.654Z,38.30
2017-08-26T12:29:47.913Z,39.40
2017-08-26T12:32:15.741Z,39.30
2017-08-26T12:34:43.242Z,39.80
2017-08-26T12:37:10.709Z,39.90
2017-08-26T12:39:38.181Z,40.10
2017-08-26T12:42:05.685Z,40.30
2017-08-26T12:44:33.157Z,39.90
2017-08-26T12:47:00.629Z,39.30
2017-08-26T12:49:28.127Z,39.10
2017-08-26T12:51:55.611Z,39.50
2017-08-26T12:54:23.105Z,39.20
2017-08-26T12:56:50.589Z,38.50
2017-08-26T12:59:18.081Z,38.60
2017-08-26T13:01:45.549Z,38.80
2017-08-26T13:04:13.289Z,38.70
2017-08-26T13:06:40.785Z,38.80
2017-08-26T13:09:08.260Z,38.60
2017-08-26T13:11:36.521Z,38.60
2017-08-26T13:14:03.997Z,38.50
2017-08-26T13:16:32.344Z,38.60
2017-08-26T13:19:00.077Z,38.50
2017-08-26T13:21:27.554Z,38.10
2017-08-26T13:23:55.046Z,37.80
2017-08-26T13:26:23.285Z,37.20
2017-08-26T13:28:50.777Z,37.20
2017-08-26T13:31:19.016Z,36.40
2017-08-26T13:33:46.485Z,36.40
2017-08-26T13:36:13.980Z,36.30
2017-08-26T13:38:41.449Z,35.80
2017-08-26T13:41:08.942Z,35.30
2017-08-26T13:43:36.418Z,34.70
2017-08-26T13:46:03.889Z,34.40
2017-08-26T13:48:31.397Z,34.30
2017-08-26T13:50:59.162Z,34.10
2017-08-26T13:53:26.909Z,34.00
2017-08-26T13:55:54.386Z,33.70
2017-08-26T13:58:21.881Z,33.60
2017-08-26T14:00:49.352Z,33.60
2017-08-26T14:03:16.826Z,33.50
2017-08-26T14:05:44.332Z,33.40
2017-08-26T14:08:11.811Z,33.10
2017-08-26T14:10:39.313Z,32.70
2017-08-26T14:13:06.833Z,32.50
2017-08-26T14:15:34.541Z,32.30
2017-08-26T14:18:02.034Z,32.30
2017-08-26T14:20:29.535Z,32.40
2017-08-26T14:22:57.013Z,32.20
2017-08-26T14:25:24.491Z,32.20
2017-08-26T14:27:51.991Z,32.20
2017-08-26T14:30:20.253Z,32.00
2017-08-26T14:32:47.729Z,32.00
2017-08-26T14:35:15.222Z,31.90
2017-08-26T14:37:43.483Z,31.90
2017-08-26T14:40:11.000Z,31.90
2017-08-26T14:42:38.520Z,31.80
2017-08-26T14:45:05.997Z,31.70
2017-08-26T14:47:33.553Z,31.50
2017-08-26T14:50:01.025Z,31.50
2017-08-26T14:52:28.532Z,31.50
2017-08-26T14:54:56.001Z,31.50
2017-08-26T14:57:23.474Z,31.50
2017-08-26T14:59:53.977Z,31.50
2017-08-26T15:02:26.297Z,31.40
2017-08-26T15:04:53.810Z,31.30
2017-08-26T15:07:21.288Z,31.30
2017-08-26T15:09:48.785Z,31.20
2017-08-26T15:12:17.027Z,31.20
2017-08-26T15:14:44.517Z,31.10
2017-08-26T15:17:12.763Z,31.20
2017-08-26T15:19:40.256Z,31.20
2017-08-26T15:22:08.501Z,31.10
2017-08-26T15:24:36.001Z,31.10
2017-08-26T15:27:03.513Z,31.10
2017-08-26T15:29:31.041Z,30.90
2017-08-26T15:31:58.532Z,30.80
2017-08-26T15:34:26.004Z,30.70
2017-08-26T15:36:53.495Z,30.70
2017-08-26T15:39:20.973Z,30.60
2017-08-26T15:41:48.457Z,30.50
2017-08-26T15:44:15.945Z,30.50
2017-08-26T15:46:43.413Z,30.40
2017-08-26T15:49:10.907Z,30.30
2017-08-26T15:51:38.446Z,30.30
2017-08-26T15:54:06.154Z,30.20
2017-08-26T15:56:33.630Z,30.10
2017-08-26T15:59:01.121Z,30.00
2017-08-26T16:01:28.589Z,30.00
2017-08-26T16:03:56.081Z,29.90
2017-08-26T16:06:23.553Z,29.90
2017-08-26T16:08:51.066Z,29.80
2017-08-26T16:11:18.545Z,29.70
2017-08-26T16:13:46.026Z,29.70
2017-08-26T16:16:13.521Z,29.60
2017-08-26T16:18:41.004Z,29.60
2017-08-26T16:21:08.708Z,29.50
2017-08-26T16:23:36.977Z,29.50
2017-08-26T16:26:04.474Z,29.50
2017-08-26T16:28:31.942Z,29.50
2017-08-26T16:30:59.702Z,29.40
2017-08-26T16:33:27.174Z,29.40
2017-08-26T16:35:54.661Z,29.40
2017-08-26T16:38:22.141Z,29.30
2017-08-26T16:40:50.465Z,29.20
2017-08-26T16:43:17.933Z,29.10
2017-08-26T16:45:45.408Z,29.20
2017-08-26T16:48:12.900Z,29.10
2017-08-26T16:50:40.381Z,29.00
2017-08-26T16:53:07.869Z,28.90
2017-08-26T16:55:35.345Z,28.90
2017-08-26T16:58:02.843Z,28.80
2017-08-26T17:00:30.321Z,28.80
2017-08-26T17:02:57.809Z,28.70
2017-08-26T17:05:25.281Z,28.60
2017-08-26T17:07:53.521Z,28.50
2017-08-26T17:10:21.017Z,28.60
2017-08-26T17:12:48.565Z,28.50
2017-08-26T17:15:16.060Z,28.40
2017-08-26T17:17:43.532Z,28.30
2017-08-26T17:20:14.962Z,28.30
2017-08-26T17:22:42.613Z,28.30
2017-08-26T17:25:10.106Z,28.10
2017-08-26T17:27:37.573Z,28.00
2017-08-26T17:30:05.094Z,28.00
2017-08-26T17:32:32.715Z,27.90
2017-08-26T17:35:00.235Z,27.80
2017-08-26T17:37:27.713Z,27.80
2017-08-26T17:39:55.205Z,27.70
2017-08-26T17:42:23.446Z,27.50
2017-08-26T17:44:50.917Z,27.50
2017-08-26T17:47:18.421Z,27.50
2017-08-26T17:49:45.897Z,27.40
2017-08-26T17:52:13.393Z,27.30
2017-08-26T17:54:40.886Z,27.10
2017-08-26T17:57:08.352Z,27.00
2017-08-26T17:59:35.849Z,26.90
2017-08-26T18:02:03.416Z,26.80
2017-08-26T18:04:30.913Z,26.70
2017-08-26T18:06:58.438Z,26.60
2017-08-26T18:09:25.909Z,26.50
2017-08-26T18:11:54.177Z,26.40
2017-08-26T18:14:21.658Z,26.40
2017-08-26T18:16:49.153Z,26.40
2017-08-26T18:19:16.624Z,26.30
2017-08-26T18:21:44.098Z,26.30
2017-08-26T18:24:11.595Z,26.30
2017-08-26T18:26:39.081Z,26.20
2017-08-26T18:29:06.573Z,26.20
2017-08-26T18:31:34.056Z,26.00
2017-08-26T18:34:01.562Z,25.80
2017-08-26T18:36:29.082Z,25.70
2017-08-26T18:38:57.389Z,25.60
2017-08-26T18:41:24.889Z,25.50
2017-08-26T18:43:53.133Z,25.20
2017-08-26T18:46:20.605Z,25.20
2017-08-26T18:48:48.154Z,25.10
2017-08-26T18:51:15.640Z,24.90
2017-08-26T18:53:43.901Z,24.60
2017-08-26T18:56:11.387Z,24.60
2017-08-26T18:58:39.669Z,24.50
2017-08-26T19:01:07.166Z,24.50
2017-08-26T19:03:34.653Z,24.50
2017-08-26T19:06:02.195Z,24.50
2017-08-26T19:08:29.729Z,24.40
2017-08-26T19:10:57.210Z,24.40
2017-08-26T19:13:24.714Z,24.30
2017-08-26T19:15:52.194Z,24.20
2017-08-26T19:18:19.701Z,24.20
2017-08-26T19:20:47.177Z,24.20
2017-08-26T19:23:14.673Z,24.20
2017-08-26T19:25:42.951Z,23.90
2017-08-26T19:28:10.433Z,23.80
2017-08-26T19:30:37.929Z,23.70
2017-08-26T19:33:05.413Z,23.80
2017-08-26T19:35:32.917Z,23.80
2017-08-26T19:38:00.434Z,23.70
2017-08-26T19:40:27.921Z,23.70
2017-08-26T19:42:55.466Z,23.60
2017-08-26T19:45:22.953Z,23.60
2017-08-26T19:47:51.193Z,23.40
2017-08-26T19:50:18.693Z,23.30
2017-08-26T19:52:46.493Z,23.40
2017-08-26T19:55:13.997Z,23.40
2017-08-26T19:57:41.473Z,23.40
2017-08-26T20:00:09.717Z,23.30
2017-08-26T20:02:37.213Z,23.30
2017-08-26T20:05:04.696Z,23.30
2017-08-26T20:07:32.198Z,23.10
2017-08-26T20:09:59.685Z,23.00
2017-08-26T20:12:27.173Z,23.10
2017-08-26T20:14:54.670Z,23.10
2017-08-26T20:17:22.162Z,23.10
2017-08-26T20:19:49.669Z,23.10
2017-08-26T20:22:17.156Z,23.00
2017-08-26T20:24:44.957Z,23.00
2017-08-26T20:27:12.453Z,23.00
2017-08-26T20:29:39.934Z,23.00
2017-08-26T20:32:07.428Z,23.00
2017-08-26T20:34:34.912Z,22.80
2017-08-26T20:37:02.389Z,22.60
2017-08-26T20:39:29.897Z,22.50
2017-08-26T20:41:57.376Z,22.40
2017-08-26T20:44:24.878Z,22.20
2017-08-26T20:46:53.117Z,22.20
2017-08-26T20:49:20.605Z,22.20
2017-08-26T20:51:48.113Z,22.10
2017-08-26T20:54:15.594Z,22.00
2017-08-26T20:56:43.178Z,22.00
2017-08-26T20:59:10.661Z,22.00
2017-08-26T21:01:38.444Z,21.90
2017-08-26T21:04:05.943Z,22.00
2017-08-26T21:06:33.442Z,22.00
2017-08-26T21:09:00.946Z,22.00
2017-08-26T21:11:28.453Z,21.90
2017-08-26T21:13:55.933Z,21.90
2017-08-26T21:16:23.429Z,21.90
2017-08-26T21:18:50.905Z,22.00
2017-08-26T21:21:19.210Z,21.90
2017-08-26T21:23:46.685Z,21.90
2017-08-26T21:26:14.166Z,21.90
2017-08-26T21:28:41.666Z,21.90
2017-08-26T21:31:09.910Z,21.80
2017-08-26T21:33:38.193Z,21.70
2017-08-26T21:36:05.673Z,21.70
2017-08-26T21:38:33.157Z,21.80
2017-08-26T21:41:00.657Z,21.80
2017-08-26T21:43:28.134Z,21.80
2017-08-26T21:45:55.638Z,21.80
2017-08-26T21:48:23.113Z,21.70
2017-08-26T21:50:50.602Z,21.70
2017-08-26T21:53:18.101Z,21.60
2017-08-26T21:55:46.454Z,21.40
2017-08-26T21:58:13.955Z,21.30
2017-08-26T22:00:41.449Z,21.10
2017-08-26T22:03:09.697Z,20.90
2017-08-26T22:05:37.432Z,20.90
2017-08-26T22:08:04.906Z,20.80
2017-08-26T22:10:32.401Z,20.90
2017-08-26T22:12:59.881Z,21.00
2017-08-26T22:15:27.361Z,21.00
2017-08-26T22:17:54.865Z,21.00
2017-08-26T22:20:22.349Z,21.10
2017-08-26T22:22:49.845Z,21.10
2017-08-26T22:25:17.325Z,21.20
2017-08-26T22:27:44.805Z,21.30
2017-08-26T22:30:13.073Z,21.30
2017-08-26T22:32:40.553Z,21.30
2017-08-26T22:35:08.082Z,21.30
2017-08-26T22:37:35.557Z,21.30
2017-08-26T22:40:03.039Z,21.40
2017-08-26T22:42:30.535Z,21.40
2017-08-26T22:44:58.489Z,21.30
2017-08-26T22:47:25.997Z,21.30
2017-08-26T22:49:54.242Z,21.20
2017-08-26T22:52:21.973Z,21.20
2017-08-26T22:54:49.514Z,21.20
2017-08-26T22:57:16.997Z,21.10
2017-08-26T22:59:44.497Z,21.10
2017-08-26T23:02:12.742Z,21.10
2017-08-26T23:04:40.217Z,21.00
2017-08-26T23:07:07.941Z,21.00
2017-08-26T23:09:35.434Z,20.90
2017-08-26T23:12:03.707Z,20.60
2017-08-26T23:14:31.438Z,20.60
2017-08-26T23:16:58.914Z,20.50
2017-08-26T23:19:26.409Z,20.40
2017-08-26T23:21:54.658Z,20.30
2017-08-26T23:24:22.161Z,20.20
2017-08-26T23:26:49.641Z,20.30
2017-08-26T23:29:17.118Z,20.30
2017-08-26T23:31:44.617Z,20.30
2017-08-26T23:34:12.862Z,20.10
2017-08-26T23:36:40.599Z,20.10
2017-08-26T23:39:08.077Z,20.20
2017-08-26T23:41:35.554Z,20.20
2017-08-26T23:44:03.045Z,20.20
2017-08-26T23:46:30.527Z,20.10
2017-08-26T23:48:58.033Z,20.10
2017-08-26T23:51:26.277Z,20.00
2017-08-26T23:53:53.753Z,19.90
2017-08-26T23:56:21.250Z,19.90
2017-08-26T23:58:48.733Z,19.90
